Aktualne dane pomiarowe

Uwaga, wersja testowa! Automatyczne pobieranie danych za pomocą narzędzi lub skryptów to umożliwiających jest zabronione.

Dane meteo z obszaru Polski uzyskane na podstawie depesz SYNOP pobieranych co godzinę z NWS. Najedź myszką na symbol przedstawiony w tabeli, aby uzyskać informacje co do jego znaczenia. Prosimy pamiętać, że to testowa wersja strony, która jeszcze nie jest ukończona. Stworzono również jest krótki FAQ dotyczący korzystania z tej podstrony Anomalie temperatury w chwili obecnej odniesione są do okresu referencyjnego 1951-2016. Okres ten będzie później zmieniony na 1981-2010. Kliknij ikonę aby pobrać plik CSV. Kliknij ikonę aby wygenerować mapę synoptyczną dla danego terminu.

Wybierz Datę:    

        

Jelenia Góra (12500)

Dane terminowe dla wybranej stacji. Kliknij datę, aby otrzymać dane z tego terminu dla wszystkich stacji.

TemperaturaZachmurzenieWiatrCiśnienieOpadyPogoda
 Data t td wb tx tn tg rh  Nt Nl Cl Cm Ch ws wd g1 g2 wx mslp ppp ch 24h 12h t ww ww w1 w2  
2019-06-26 23:00:00 21.2 18.6 19.3--- 8524.0wxwxwx1wx--11020.3 980.4 0.7---------
2019-06-26 22:00:00 21.4 18.8 19.5--- 8523.0wx-1wx--11019.9 980.0 0.6---------
2019-06-26 21:00:00 22.7 18.7 19.9--- 7825.0wx-1wx--11019.5 979.8 0.5---------
2019-06-26 20:00:00 26.5 18.1 20.9--- 6015.0wx-1wx--11018.9 979.7 0.3---------
2019-06-26 19:00:00 28.7 16.9 21.0--- 4935.0wx-2wx--21018.3 979.4 -0.4---------
2019-06-26 18:00:00 32.2 16.5 22.0 34.0 23.9- 3928.0wxwxwx3wx-1131017.7 979.3 -0.9- 0.012------
2019-06-26 17:00:00 33.4 16.7 22.6--- 3730.0wxwxwx4wx--41017.6 979.4 -1.1---------
2019-06-26 16:00:00 33.7 17.0 22.8--- 3735.0wxwxwx5wx--51018.0 979.8 -1.0---------
2019-06-26 15:00:00 33.6 18.1 23.4--- 4040.0wxwxwx5wx10--1018.5 980.2 -0.9---------
2019-06-26 14:00:00 33.5 17.6 23.1--- 3940.0wxwxwxwx4wx-1041018.8 980.5 -1.1---------
2019-06-26 13:00:00 33.2 17.0 22.7--- 3840.0wxwxwxwx5wx101051019.1 980.8 -1.0---------
2019-06-26 12:00:00 33.4 16.3 22.4--- 3640.0wxwxwxwx4wx--41019.4 981.1 -0.8- 0.06------
2019-06-26 11:00:00 33.2 16.5 22.4--- 3740.0wxwxwxwx4wx--41020.0 981.6 -0.5---------
2019-06-26 10:00:00 32.7 16.5 22.2--- 3835.0wxwxwxwx3wx--31020.2 981.8 -0.3---------
2019-06-26 09:00:00 32.0 17.1 22.3--- 4130.0wxwxwxwx1wx--11020.4 981.9 -0.3---------
2019-06-26 08:00:00 29.9 18.7 22.4--- 5130.0wx-wx1wx--11020.9 982.1 -0.2---------
2019-06-26 07:00:00 27.6 20.4 22.6--- 6525.0wx-wx1wx--11021.2 982.1 -0.3---------
2019-06-26 06:00:00 23.9 19.6 20.9 28.4 15.1 13 7722.0wx-wx1wx--11021.8 982.2 -0.2- 0.012----- 14.7
2019-06-26 05:00:00 20.2 18.0 18.6--- 8716.0wx-wx0---01022.4 982.3 -0.4---------
2019-06-26 04:00:00 16.6 16.0 16.1--- 9615.0wx-wx1wx--11023.0 982.4 -0.4---------
2019-06-26 03:00:00 15.2 14.7 14.8--- 9715.0wx-wx0---01023.2 982.4 -0.6---wx---
2019-06-26 02:00:00 15.6 15.1 15.2--- 9710.0wx-1wx--11023.5 982.7 -0.5---wx---
2019-06-26 01:00:00 16.4 16.1 16.2--- 9810.0wx-2wx--21023.5 982.8 -0.5---------
2019-06-26 00:00:00 17.4 17.1 17.2--- 9812.0wx-1wx--11023.5 983.0 0.0- 0.06------
2019-06-25 23:00:00 18.1 16.4 16.9--- 9015.0wx-1wx--11023.7 983.2 0.4---------
2019-06-25 22:00:00 19.2 17.5 18.0--- 9019.0wx-1wx--11023.6 983.3 0.8---------
2019-06-25 21:00:00 20.1 17.7 18.4--- 8620.0wx-wx1wx--11023.2 983.0 0.6---------
2019-06-25 20:00:00 22.0 17.6 18.9--- 7640.0wx-wx0---01022.7 982.8 0.3---------
2019-06-25 19:00:00 25.2 17.4 20.0--- 6235.0wx-wx2wx--21021.9 982.5 0.1---------
2019-06-25 18:00:00 28.4 16.7 20.8 31.8 21.7- 4945.0wxwxwxwx2wx---1021.4 982.4 -0.2---------
2019-06-25 17:00:00 29.9 16.3 21.1--- 4435.0wxwxwxwx4wx---1021.3 982.5 -0.2---------
2019-06-25 16:00:00 29.7 17.5 21.7--- 4835.0wxwxwxwx3wx--31021.2 982.4 -0.3---------
2019-06-25 15:00:00 30.6 17.7 22.1--- 4628.0wxwxwxwx5wx--51021.3 982.6 -0.4---------
2019-06-25 14:00:00 31.0 14.2 20.5--- 3635.0wxwxwxwx4wx---1021.4 982.7 -0.4---------
2019-06-25 13:00:00 31.5 15.5 21.3--- 3835.0wxwxwxwx3wx--31021.3 982.7 -0.8---------
2019-06-25 12:00:00 30.3 14.8 20.5--- 3935.0wxwxwxwx3wx--31021.8 983.0 -0.6- 0.06------
2019-06-25 11:00:00 28.7 14.9 20.0--- 4335.0wxwxwxwx2wx--21022.1 983.1 -0.3---------
2019-06-25 10:00:00 27.5 14.8 19.5--- 4628.0wxwxwxwx2wx--21022.7 983.5 0.1---------
2019-06-25 09:00:00 26.7 15.4 19.5--- 5035.0wxwxwxwx3wx--31022.9 983.6 0.1---------
2019-06-25 08:00:00 25.3 16.2 19.3--- 5730.0wx-wx3wx--31022.9 983.4 -0.3---------
2019-06-25 07:00:00 24.3 15.8 18.7--- 5930.0wx-wx3wx--31023.0 983.4 -0.5---------
2019-06-25 06:00:00 21.8 15.6 17.7 25.3 10.0 8 6835.0wx-wx4wx--41023.4 983.5 -0.4- 0.012----- 14.5
2019-06-25 05:00:00 15.4 13.9 14.3--- 9120.0wx-wx1wx--11024.6 983.7 -0.3---------
2019-06-25 04:00:00 11.2 11.2 11.1--- 10020.0wx-wx1wx--11025.4 983.9 -0.4---wx---
2019-06-25 03:00:00 10.1 9.9 9.9--- 9920.0wx-wx1wx--11025.6 983.9 -0.6---------
2019-06-25 02:00:00 10.4 9.9 10.0--- 9720.0wx-1wx--11025.6 984.0 -0.2---------
2019-06-25 01:00:00 11.9 11.6 11.6--- 9820.0wx-0---01025.7 984.3 0.1---------
2019-06-25 00:00:00 12.8 12.6 12.6--- 9920.0wx-1wx--11025.8 984.5 0.4- 0.06------
1.2 ms

 

Print Friendly, PDF & Email